createdAt,value
2018-11-11T00:00:12.467Z,67.70
2018-11-11T00:01:16.511Z,67.70
2018-11-11T00:02:20.591Z,67.60
2018-11-11T00:03:25.594Z,67.50
2018-11-11T00:04:29.750Z,67.50
2018-11-11T00:05:34.616Z,67.70
2018-11-11T00:06:39.381Z,67.70
2018-11-11T00:07:43.524Z,67.50
2018-11-11T00:08:47.762Z,68.40
2018-11-11T00:09:52.053Z,67.50
2018-11-11T00:10:56.260Z,67.60
2018-11-11T00:12:00.474Z,67.60
2018-11-11T00:13:04.779Z,67.60
2018-11-11T00:14:09.065Z,67.60
2018-11-11T00:15:15.280Z,67.60
2018-11-11T00:16:19.540Z,67.60
2018-11-11T00:17:23.690Z,67.50
2018-11-11T00:18:27.987Z,67.50
2018-11-11T00:19:32.116Z,67.50
2018-11-11T00:20:36.188Z,67.70
2018-11-11T00:21:40.313Z,67.70
2018-11-11T00:22:44.382Z,67.80
2018-11-11T00:23:48.472Z,67.80
2018-11-11T00:24:52.579Z,67.90
2018-11-11T00:25:56.580Z,68.00
2018-11-11T00:27:00.783Z,68.00
2018-11-11T00:28:04.812Z,68.10
2018-11-11T00:29:09.161Z,68.10
2018-11-11T00:30:19.963Z,68.20
2018-11-11T00:31:24.062Z,68.20
2018-11-11T00:32:28.252Z,68.20
2018-11-11T00:33:32.298Z,68.20
2018-11-11T00:34:36.410Z,68.30
2018-11-11T00:35:40.449Z,68.30
2018-11-11T00:36:44.761Z,68.40
2018-11-11T00:37:50.859Z,68.40
2018-11-11T00:38:54.954Z,68.50
2018-11-11T00:39:59.057Z,68.60
2018-11-11T00:41:03.125Z,68.60
2018-11-11T00:42:07.274Z,68.70
2018-11-11T00:43:11.338Z,68.70
2018-11-11T00:44:15.488Z,68.70
2018-11-11T00:45:19.573Z,68.60
2018-11-11T00:46:23.718Z,68.70
2018-11-11T00:47:27.785Z,68.70
2018-11-11T00:48:31.896Z,69.60
2018-11-11T00:49:35.998Z,68.50
2018-11-11T00:50:40.139Z,68.50
2018-11-11T00:51:44.477Z,68.60
2018-11-11T00:52:48.639Z,68.60
2018-11-11T00:53:52.889Z,68.50
2018-11-11T00:54:57.009Z,68.50
2018-11-11T00:56:01.109Z,68.40
2018-11-11T00:57:05.604Z,68.40
2018-11-11T00:58:09.797Z,68.40
2018-11-11T00:59:13.955Z,68.40
2018-11-11T01:00:18.973Z,68.30
2018-11-11T01:01:23.040Z,68.20
2018-11-11T01:02:27.125Z,68.20
2018-11-11T01:03:31.280Z,68.20
2018-11-11T01:04:35.366Z,68.20
2018-11-11T01:05:39.507Z,68.20
2018-11-11T01:06:43.701Z,68.30
2018-11-11T01:07:47.848Z,68.40
2018-11-11T01:08:51.991Z,68.30
2018-11-11T01:09:56.072Z,68.40
2018-11-11T01:11:00.141Z,68.40
2018-11-11T01:12:04.223Z,68.40
2018-11-11T01:13:08.252Z,68.40
2018-11-11T01:14:12.386Z,68.40
2018-11-11T01:15:17.572Z,68.40
2018-11-11T01:16:21.676Z,68.40
2018-11-11T01:17:25.792Z,67.70
2018-11-11T01:18:30.142Z,68.40
2018-11-11T01:19:34.292Z,68.50
2018-11-11T01:20:38.413Z,68.50
2018-11-11T01:21:42.516Z,68.70
2018-11-11T01:22:46.948Z,68.70
2018-11-11T01:23:51.047Z,68.60
2018-11-11T01:24:55.136Z,68.50
2018-11-11T01:25:59.221Z,68.40
2018-11-11T01:27:03.254Z,68.40
2018-11-11T01:28:07.290Z,68.40
2018-11-11T01:29:11.311Z,68.30
2018-11-11T01:30:15.416Z,68.30
2018-11-11T01:31:19.592Z,68.20
2018-11-11T01:32:23.672Z,68.20
2018-11-11T01:33:27.746Z,68.20
2018-11-11T01:34:31.759Z,68.30
2018-11-11T01:35:35.854Z,68.40
2018-11-11T01:36:39.901Z,68.40
2018-11-11T01:37:44.217Z,68.40
2018-11-11T01:38:48.468Z,68.40
2018-11-11T01:39:52.538Z,68.50
2018-11-11T01:40:56.635Z,68.60
2018-11-11T01:42:00.698Z,68.70
2018-11-11T01:43:04.857Z,68.60
2018-11-11T01:44:09.403Z,68.60
2018-11-11T01:45:16.399Z,68.70
2018-11-11T01:46:20.533Z,68.70
2018-11-11T01:47:24.718Z,68.80
2018-11-11T01:48:28.772Z,68.70
2018-11-11T01:49:32.853Z,68.80
2018-11-11T01:50:36.890Z,68.70
2018-11-11T01:51:40.960Z,68.80
2018-11-11T01:52:45.064Z,68.80
2018-11-11T01:53:49.195Z,68.90
2018-11-11T01:54:53.381Z,69.00
2018-11-11T01:55:57.490Z,69.10
2018-11-11T01:57:01.638Z,69.10
2018-11-11T01:58:05.946Z,69.10
2018-11-11T01:59:10.049Z,69.20
2018-11-11T02:00:16.822Z,69.20
2018-11-11T02:01:21.096Z,69.40
2018-11-11T02:02:25.217Z,69.40
2018-11-11T02:03:29.304Z,69.40
2018-11-11T02:04:33.404Z,69.50
2018-11-11T02:05:37.439Z,69.50
2018-11-11T02:06:41.700Z,69.50
2018-11-11T02:07:46.515Z,69.50
2018-11-11T02:08:56.899Z,69.60
2018-11-11T02:10:08.042Z,69.50
2018-11-11T02:11:17.989Z,69.50
2018-11-11T02:12:22.180Z,69.60
2018-11-11T02:13:26.268Z,69.70
2018-11-11T02:14:30.315Z,69.80
2018-11-11T02:15:34.395Z,69.70
2018-11-11T02:16:38.478Z,69.80
2018-11-11T02:17:42.658Z,69.90
2018-11-11T02:18:46.808Z,69.70
2018-11-11T02:19:51.011Z,69.90
2018-11-11T02:20:55.231Z,69.90
2018-11-11T02:21:59.320Z,69.90
2018-11-11T02:23:03.530Z,69.80
2018-11-11T02:24:07.637Z,69.80
2018-11-11T02:25:11.842Z,69.70
2018-11-11T02:26:15.939Z,69.80
2018-11-11T02:27:20.050Z,69.80
2018-11-11T02:28:24.212Z,69.80
2018-11-11T02:29:28.314Z,69.80
2018-11-11T02:30:32.418Z,69.80
2018-11-11T02:31:36.483Z,70.00
2018-11-11T02:32:41.241Z,70.00
2018-11-11T02:33:45.315Z,70.10
2018-11-11T02:34:49.376Z,70.00
2018-11-11T02:35:53.459Z,70.10
2018-11-11T02:36:57.571Z,70.20
2018-11-11T02:38:02.508Z,69.90
2018-11-11T02:39:08.071Z,70.10
2018-11-11T02:40:13.573Z,70.30
2018-11-11T02:41:17.659Z,70.10
2018-11-11T02:42:21.807Z,70.60
2018-11-11T02:43:25.879Z,70.40
2018-11-11T02:44:30.105Z,70.40
2018-11-11T02:45:34.270Z,70.30
2018-11-11T02:46:38.363Z,70.30
2018-11-11T02:47:42.452Z,70.50
2018-11-11T02:48:46.548Z,70.70
2018-11-11T02:49:50.707Z,70.80
2018-11-11T02:50:54.849Z,70.90
2018-11-11T02:51:58.953Z,71.00
2018-11-11T02:53:03.137Z,71.20
2018-11-11T02:54:07.193Z,71.20
2018-11-11T02:55:12.031Z,71.10
2018-11-11T02:56:16.101Z,71.50
2018-11-11T02:57:20.184Z,71.60
2018-11-11T02:58:24.313Z,71.60
2018-11-11T02:59:28.451Z,71.50
2018-11-11T03:00:32.514Z,71.50
2018-11-11T03:01:36.568Z,71.70
2018-11-11T03:02:40.922Z,71.80
2018-11-11T03:03:45.063Z,71.80
2018-11-11T03:04:49.082Z,71.90
2018-11-11T03:05:53.118Z,72.20
2018-11-11T03:06:57.130Z,72.20
2018-11-11T03:08:01.178Z,72.20
2018-11-11T03:09:08.496Z,72.30
2018-11-11T03:10:13.316Z,72.40
2018-11-11T03:11:17.434Z,72.30
2018-11-11T03:12:21.543Z,72.40
2018-11-11T03:13:25.682Z,72.40
2018-11-11T03:14:29.692Z,72.40
2018-11-11T03:15:33.905Z,72.40
2018-11-11T03:16:38.431Z,72.60
2018-11-11T03:17:42.502Z,72.50
2018-11-11T03:18:46.568Z,72.50
2018-11-11T03:19:50.682Z,72.40
2018-11-11T03:20:54.794Z,72.50
2018-11-11T03:21:58.932Z,72.50
2018-11-11T03:23:03.033Z,72.60
2018-11-11T03:24:07.166Z,72.60
2018-11-11T03:25:12.640Z,72.60
2018-11-11T03:26:16.670Z,72.60
2018-11-11T03:27:20.848Z,72.70
2018-11-11T03:28:24.958Z,72.90
2018-11-11T03:29:29.080Z,72.60
2018-11-11T03:30:33.165Z,72.50
2018-11-11T03:31:37.226Z,72.60
2018-11-11T03:32:41.592Z,72.50
2018-11-11T03:33:45.712Z,73.40
2018-11-11T03:34:49.804Z,72.70
2018-11-11T03:35:53.864Z,72.90
2018-11-11T03:36:57.960Z,73.10
2018-11-11T03:38:02.145Z,72.90
2018-11-11T03:39:08.169Z,72.90
2018-11-11T03:40:14.401Z,72.90
2018-11-11T03:41:18.429Z,72.90
2018-11-11T03:42:22.577Z,72.80
2018-11-11T03:43:26.671Z,72.80
2018-11-11T03:44:30.822Z,72.80
2018-11-11T03:45:34.918Z,73.00
2018-11-11T03:46:39.096Z,73.30
2018-11-11T03:47:44.023Z,72.80
2018-11-11T03:48:48.074Z,72.70
2018-11-11T03:49:52.228Z,72.70
2018-11-11T03:50:56.262Z,72.80
2018-11-11T03:52:00.335Z,72.80
2018-11-11T03:53:04.379Z,72.90
2018-11-11T03:54:08.753Z,73.70
2018-11-11T03:55:12.979Z,72.90
2018-11-11T03:56:17.091Z,72.90
2018-11-11T03:57:21.215Z,73.10
2018-11-11T03:58:25.320Z,73.10
2018-11-11T03:59:29.315Z,73.10
2018-11-11T04:00:33.399Z,73.10
2018-11-11T04:01:37.434Z,73.10
2018-11-11T04:02:41.587Z,73.10
2018-11-11T04:03:45.735Z,73.00
2018-11-11T04:04:49.818Z,73.10
2018-11-11T04:05:53.980Z,73.10
2018-11-11T04:06:58.026Z,73.10
2018-11-11T04:08:02.084Z,73.00
2018-11-11T04:09:09.041Z,73.00
2018-11-11T04:10:14.781Z,73.00
2018-11-11T04:11:18.818Z,73.00
2018-11-11T04:12:23.032Z,73.10
2018-11-11T04:13:27.080Z,73.10
2018-11-11T04:14:31.258Z,73.10
2018-11-11T04:15:35.341Z,73.10
2018-11-11T04:16:39.856Z,73.10
2018-11-11T04:17:44.047Z,73.40
2018-11-11T04:18:48.086Z,73.10
2018-11-11T04:19:52.150Z,73.10
2018-11-11T04:20:56.238Z,73.10
2018-11-11T04:22:04.569Z,73.10
2018-11-11T04:23:08.645Z,73.10
2018-11-11T04:24:12.842Z,73.30
2018-11-11T04:25:17.865Z,73.20
2018-11-11T04:26:21.983Z,73.20
2018-11-11T04:27:26.062Z,73.10
2018-11-11T04:28:30.130Z,73.00
2018-11-11T04:29:34.250Z,73.00
2018-11-11T04:30:38.320Z,73.10
2018-11-11T04:31:42.378Z,73.30
2018-11-11T04:32:46.462Z,73.10
2018-11-11T04:33:50.516Z,73.00
2018-11-11T04:34:54.543Z,73.10
2018-11-11T04:35:58.707Z,73.10
2018-11-11T04:37:02.880Z,73.20
2018-11-11T04:38:06.975Z,73.20
2018-11-11T04:39:11.968Z,73.30
2018-11-11T04:40:16.078Z,73.30
2018-11-11T04:41:20.173Z,73.30
2018-11-11T04:42:24.307Z,73.40
2018-11-11T04:43:28.426Z,73.40
2018-11-11T04:44:32.536Z,73.60
2018-11-11T04:45:36.632Z,73.70
2018-11-11T04:46:40.730Z,73.70
2018-11-11T04:47:45.810Z,73.70
2018-11-11T04:48:50.060Z,73.70
2018-11-11T04:49:54.422Z,74.60
2018-11-11T04:50:58.645Z,74.00
2018-11-11T04:52:02.812Z,74.00
2018-11-11T04:53:06.959Z,74.10
2018-11-11T04:54:11.090Z,74.00
2018-11-11T04:55:15.251Z,74.00
2018-11-11T04:56:19.318Z,74.10
2018-11-11T04:57:23.384Z,74.60
2018-11-11T04:58:27.520Z,74.50
2018-11-11T04:59:31.590Z,74.70
2018-11-11T05:00:35.662Z,74.80
2018-11-11T05:01:39.833Z,75.00
2018-11-11T05:02:43.803Z,75.10
2018-11-11T05:03:48.463Z,75.40
2018-11-11T05:04:52.555Z,75.00
2018-11-11T05:05:56.638Z,74.80
2018-11-11T05:07:00.760Z,74.80
2018-11-11T05:08:05.289Z,75.10
2018-11-11T05:09:11.127Z,74.80
2018-11-11T05:10:15.194Z,74.70
2018-11-11T05:11:19.344Z,74.60
2018-11-11T05:12:23.401Z,74.60
2018-11-11T05:13:27.490Z,74.50
2018-11-11T05:14:31.505Z,74.30
2018-11-11T05:15:35.548Z,74.30
2018-11-11T05:16:39.698Z,74.30
2018-11-11T05:17:44.187Z,74.30
2018-11-11T05:18:48.229Z,74.20
2018-11-11T05:19:52.274Z,74.30
2018-11-11T05:20:56.350Z,74.00
2018-11-11T05:22:00.557Z,73.90
2018-11-11T05:23:05.208Z,73.80
2018-11-11T05:24:09.296Z,73.80
2018-11-11T05:25:14.420Z,73.60
2018-11-11T05:26:18.519Z,73.60
2018-11-11T05:27:22.707Z,73.60
2018-11-11T05:28:26.856Z,73.40
2018-11-11T05:29:31.012Z,73.40
2018-11-11T05:30:35.233Z,73.40
2018-11-11T05:31:39.318Z,73.60
2018-11-11T05:32:43.439Z,73.60
2018-11-11T05:33:47.528Z,73.60
2018-11-11T05:34:51.633Z,73.70
2018-11-11T05:35:55.838Z,73.70
2018-11-11T05:36:59.899Z,73.70
2018-11-11T05:38:04.111Z,73.70
2018-11-11T05:39:09.638Z,73.70
2018-11-11T05:40:14.121Z,73.70
2018-11-11T05:41:18.216Z,73.70
2018-11-11T05:42:22.257Z,73.60
2018-11-11T05:43:26.312Z,73.60
2018-11-11T05:44:30.488Z,73.60
2018-11-11T05:45:34.569Z,73.60
2018-11-11T05:46:38.869Z,73.50
2018-11-11T05:47:43.461Z,73.60
2018-11-11T05:48:47.558Z,73.60
2018-11-11T05:49:51.679Z,73.60
2018-11-11T05:50:55.732Z,73.70
2018-11-11T05:51:59.831Z,73.60
2018-11-11T05:53:03.947Z,73.70
2018-11-11T05:54:08.052Z,73.70
2018-11-11T05:55:12.215Z,73.70
2018-11-11T05:56:16.356Z,73.80
2018-11-11T05:57:20.513Z,74.00
2018-11-11T05:58:24.590Z,74.20
2018-11-11T05:59:28.711Z,74.20
2018-11-11T06:00:32.786Z,74.20
2018-11-11T06:01:36.970Z,74.10
2018-11-11T06:02:41.167Z,74.10
2018-11-11T06:03:45.230Z,74.10
2018-11-11T06:04:49.272Z,74.10
2018-11-11T06:05:53.404Z,74.10
2018-11-11T06:06:57.542Z,74.10
2018-11-11T06:08:01.617Z,74.10
2018-11-11T06:09:08.369Z,74.10
2018-11-11T06:10:13.652Z,74.00
2018-11-11T06:11:17.772Z,74.00
2018-11-11T06:12:21.868Z,73.90
2018-11-11T06:13:25.951Z,73.90
2018-11-11T06:14:30.010Z,73.90
2018-11-11T06:15:34.143Z,73.80
2018-11-11T06:16:38.230Z,73.70
2018-11-11T06:17:42.302Z,73.60
2018-11-11T06:18:46.459Z,73.50
2018-11-11T06:19:50.505Z,73.70
2018-11-11T06:20:54.608Z,73.60
2018-11-11T06:21:58.708Z,73.40
2018-11-11T06:23:02.732Z,73.40
2018-11-11T06:24:06.907Z,73.30
2018-11-11T06:25:11.232Z,73.30
2018-11-11T06:26:15.303Z,73.40
2018-11-11T06:27:19.361Z,73.50
2018-11-11T06:28:23.477Z,73.80
2018-11-11T06:29:27.551Z,73.80
2018-11-11T06:30:31.644Z,73.70
2018-11-11T06:31:35.745Z,73.70
2018-11-11T06:32:39.824Z,73.90
2018-11-11T06:33:43.952Z,73.90
2018-11-11T06:34:48.050Z,74.00
2018-11-11T06:35:52.070Z,74.00
2018-11-11T06:36:56.164Z,73.90
2018-11-11T06:38:00.290Z,74.00
2018-11-11T06:39:06.248Z,73.90
2018-11-11T06:40:11.420Z,73.70
2018-11-11T06:41:15.525Z,73.60
2018-11-11T06:42:19.626Z,73.50
2018-11-11T06:43:23.683Z,73.40
2018-11-11T06:44:28.480Z,73.40
2018-11-11T06:45:32.596Z,73.40
2018-11-11T06:46:36.610Z,73.40
2018-11-11T06:47:41.302Z,73.40
2018-11-11T06:48:45.377Z,73.40
2018-11-11T06:49:49.490Z,73.40
2018-11-11T06:50:53.566Z,73.30
2018-11-11T06:51:57.643Z,73.20
2018-11-11T06:53:01.820Z,73.30
2018-11-11T06:54:06.033Z,73.10
2018-11-11T06:55:10.404Z,73.00
2018-11-11T06:56:14.413Z,73.20
2018-11-11T06:57:18.524Z,73.30
2018-11-11T06:58:22.624Z,73.30
2018-11-11T06:59:26.719Z,73.20
2018-11-11T07:00:30.837Z,73.10
2018-11-11T07:01:35.008Z,73.30
2018-11-11T07:02:40.322Z,73.40
2018-11-11T07:03:53.964Z,73.50
2018-11-11T07:04:58.042Z,73.70
2018-11-11T07:06:02.100Z,73.60
2018-11-11T07:07:06.276Z,73.60
2018-11-11T07:08:10.504Z,73.80
2018-11-11T07:09:14.618Z,73.90
2018-11-11T07:10:18.695Z,73.90
2018-11-11T07:11:22.809Z,73.80
2018-11-11T07:12:27.015Z,73.90
2018-11-11T07:13:31.140Z,74.00
2018-11-11T07:14:35.229Z,74.10
2018-11-11T07:15:39.341Z,74.10
2018-11-11T07:16:43.376Z,74.00
2018-11-11T07:17:47.417Z,74.00
2018-11-11T07:18:51.458Z,74.10
2018-11-11T07:19:55.525Z,74.10
2018-11-11T07:20:59.655Z,74.10
2018-11-11T07:22:03.900Z,74.10
2018-11-11T07:23:07.985Z,74.10
2018-11-11T07:24:12.190Z,74.10
2018-11-11T07:25:16.226Z,74.30
2018-11-11T07:26:20.378Z,74.40
2018-11-11T07:27:24.480Z,74.10
2018-11-11T07:28:29.433Z,74.10
2018-11-11T07:29:34.100Z,74.10
2018-11-11T07:30:38.172Z,74.00
2018-11-11T07:31:42.229Z,73.90
2018-11-11T07:32:46.287Z,73.70
2018-11-11T07:33:50.405Z,73.60
2018-11-11T07:34:54.580Z,73.60
2018-11-11T07:35:59.274Z,73.60
2018-11-11T07:37:03.321Z,73.70
2018-11-11T07:38:07.448Z,73.70
2018-11-11T07:39:13.072Z,73.60
2018-11-11T07:40:17.462Z,73.70
2018-11-11T07:41:21.578Z,73.70
2018-11-11T07:42:25.784Z,73.70
2018-11-11T07:43:29.844Z,73.80
2018-11-11T07:44:33.968Z,73.90
2018-11-11T07:45:38.078Z,73.90
2018-11-11T07:46:42.160Z,74.00
2018-11-11T07:47:46.276Z,74.10
2018-11-11T07:48:50.486Z,74.10
2018-11-11T07:49:54.596Z,74.10
2018-11-11T07:50:58.726Z,74.30
2018-11-11T07:52:02.833Z,74.20
2018-11-11T07:53:06.856Z,74.10
2018-11-11T07:54:11.016Z,74.00
2018-11-11T07:55:15.128Z,73.90
2018-11-11T07:56:19.348Z,73.70
2018-11-11T07:57:23.431Z,73.70
2018-11-11T07:58:27.594Z,73.50
2018-11-11T07:59:31.649Z,73.40
2018-11-11T08:00:35.718Z,73.30
2018-11-11T08:01:39.856Z,73.20
2018-11-11T08:02:44.114Z,73.10
2018-11-11T08:03:48.232Z,73.10
2018-11-11T08:04:52.414Z,72.90
2018-11-11T08:05:56.473Z,72.60
2018-11-11T08:07:00.586Z,72.50
2018-11-11T08:08:04.887Z,72.40
2018-11-11T08:09:08.986Z,72.20
2018-11-11T08:10:24.467Z,72.20
2018-11-11T08:11:39.881Z,72.30
2018-11-11T08:12:43.979Z,73.30
2018-11-11T08:13:48.002Z,72.60
2018-11-11T08:14:52.147Z,72.70
2018-11-11T08:15:56.207Z,72.80
2018-11-11T08:17:00.275Z,72.70
2018-11-11T08:18:04.500Z,73.00
2018-11-11T08:19:08.602Z,73.00
2018-11-11T08:20:12.634Z,73.10
2018-11-11T08:21:16.749Z,73.20
2018-11-11T08:22:20.792Z,73.40
2018-11-11T08:23:31.392Z,73.50
2018-11-11T08:24:35.476Z,73.60
2018-11-11T08:25:39.548Z,73.60
2018-11-11T08:26:43.638Z,73.70
2018-11-11T08:27:47.716Z,73.80
2018-11-11T08:28:51.843Z,74.00
2018-11-11T08:29:55.970Z,74.20
2018-11-11T08:31:00.086Z,74.20
2018-11-11T08:32:06.023Z,74.20
2018-11-11T08:33:10.022Z,74.10
2018-11-11T08:34:14.170Z,74.10
2018-11-11T08:35:18.188Z,74.30
2018-11-11T08:36:22.257Z,74.20
2018-11-11T08:37:26.355Z,74.20
2018-11-11T08:38:30.446Z,74.20
2018-11-11T08:39:34.526Z,74.10
2018-11-11T08:40:38.655Z,73.90
2018-11-11T08:41:43.772Z,73.80
2018-11-11T08:42:47.826Z,73.50
2018-11-11T08:43:51.944Z,73.30
2018-11-11T08:44:55.994Z,73.10
2018-11-11T08:46:00.042Z,72.90
2018-11-11T08:47:04.137Z,72.80
2018-11-11T08:48:08.206Z,72.70
2018-11-11T08:49:13.168Z,72.40
2018-11-11T08:50:17.261Z,72.30
2018-11-11T08:51:21.541Z,72.40
2018-11-11T08:52:25.660Z,72.40
2018-11-11T08:53:29.772Z,72.40
2018-11-11T08:54:33.833Z,72.20
2018-11-11T08:55:37.927Z,72.10
2018-11-11T08:56:42.820Z,72.10
2018-11-11T08:57:46.998Z,72.10
2018-11-11T08:58:51.051Z,72.20
2018-11-11T08:59:55.223Z,72.40
2018-11-11T09:00:59.412Z,72.50
2018-11-11T09:02:03.546Z,72.50
2018-11-11T09:03:07.642Z,72.20
2018-11-11T09:04:11.737Z,72.10
2018-11-11T09:05:15.776Z,72.00
2018-11-11T09:06:20.309Z,72.10
2018-11-11T09:07:24.460Z,72.20
2018-11-11T09:08:28.564Z,72.20
2018-11-11T09:09:32.709Z,72.40
2018-11-11T09:10:36.820Z,72.40
2018-11-11T09:11:41.074Z,72.40
2018-11-11T09:12:45.040Z,72.50
2018-11-11T09:13:49.745Z,72.60
2018-11-11T09:14:53.850Z,72.70
2018-11-11T09:15:57.930Z,72.80
2018-11-11T09:17:02.017Z,72.80
2018-11-11T09:18:06.232Z,72.90
2018-11-11T09:19:10.331Z,72.90
2018-11-11T09:20:15.412Z,72.90
2018-11-11T09:21:19.558Z,72.90
2018-11-11T09:22:23.574Z,72.90
2018-11-11T09:23:27.679Z,73.00
2018-11-11T09:24:32.744Z,72.90
2018-11-11T09:25:36.877Z,72.70
2018-11-11T09:26:41.026Z,72.60
2018-11-11T09:27:45.107Z,72.60
2018-11-11T09:28:49.146Z,72.60
2018-11-11T09:29:53.234Z,72.70
2018-11-11T09:30:57.380Z,72.50
2018-11-11T09:32:01.521Z,72.90
2018-11-11T09:33:05.880Z,72.80
2018-11-11T09:34:09.954Z,72.90
2018-11-11T09:35:14.145Z,72.80
2018-11-11T09:36:18.239Z,72.70
2018-11-11T09:37:22.382Z,72.70
2018-11-11T09:38:26.482Z,73.30
2018-11-11T09:39:30.535Z,72.30
2018-11-11T09:40:34.629Z,72.10
2018-11-11T09:41:38.760Z,72.10
2018-11-11T09:42:43.189Z,72.10
2018-11-11T09:43:47.306Z,72.10
2018-11-11T09:44:51.403Z,72.00
2018-11-11T09:45:55.497Z,72.00
2018-11-11T09:46:59.850Z,72.00
2018-11-11T09:48:04.434Z,72.60
2018-11-11T09:49:08.404Z,71.80
2018-11-11T09:50:13.856Z,71.70
2018-11-11T09:51:18.182Z,71.80
2018-11-11T09:52:22.297Z,71.80
2018-11-11T09:53:26.716Z,71.80
2018-11-11T09:54:30.856Z,72.10
2018-11-11T09:55:35.025Z,72.10
2018-11-11T09:56:39.146Z,72.10
2018-11-11T09:57:43.228Z,72.10
2018-11-11T09:58:47.601Z,72.10
2018-11-11T09:59:51.635Z,72.00
2018-11-11T10:00:55.878Z,71.80
2018-11-11T10:02:00.122Z,71.80
2018-11-11T10:03:06.914Z,71.70
2018-11-11T10:04:15.422Z,71.60
2018-11-11T10:05:27.928Z,71.60
2018-11-11T10:06:41.164Z,71.50
2018-11-11T10:07:49.413Z,71.50
2018-11-11T10:08:56.602Z,71.50
2018-11-11T10:11:07.692Z,71.40
2018-11-11T10:12:21.888Z,71.50
2018-11-11T10:13:44.733Z,71.60
2018-11-11T10:14:57.589Z,71.90
2018-11-11T10:16:05.060Z,72.40
2018-11-11T10:17:18.425Z,73.10
2018-11-11T10:18:37.667Z,73.70
2018-11-11T10:19:45.890Z,74.40
2018-11-11T10:21:06.184Z,74.90
2018-11-11T10:22:14.023Z,75.40
2018-11-11T10:25:26.450Z,75.50
2018-11-11T10:26:35.957Z,74.90
2018-11-11T10:28:18.548Z,73.90
2018-11-11T10:30:30.183Z,72.70
2018-11-11T10:31:52.720Z,71.70
2018-11-11T10:35:29.638Z,70.50
2018-11-11T10:36:39.651Z,69.50
2018-11-11T10:37:47.390Z,68.90
2018-11-11T10:38:56.266Z,68.50
2018-11-11T10:40:04.556Z,68.10
2018-11-11T10:43:15.728Z,67.70
2018-11-11T10:44:24.052Z,67.30
2018-11-11T10:45:48.722Z,66.60
2018-11-11T10:46:56.665Z,66.00
2018-11-11T10:48:03.384Z,65.70
2018-11-11T10:49:08.577Z,65.40
2018-11-11T10:50:17.306Z,65.00
2018-11-11T10:51:21.483Z,64.70
2018-11-11T10:52:25.633Z,64.60
2018-11-11T10:53:29.756Z,64.50
2018-11-11T10:54:34.090Z,64.50
2018-11-11T10:55:39.195Z,64.60
2018-11-11T10:56:43.301Z,64.70
2018-11-11T10:57:47.443Z,64.80
2018-11-11T10:58:51.631Z,65.00
2018-11-11T10:59:55.743Z,65.10
2018-11-11T11:01:05.186Z,66.00
2018-11-11T11:02:14.656Z,65.60
2018-11-11T11:03:23.965Z,65.70
2018-11-11T11:04:28.234Z,65.80
2018-11-11T11:05:32.498Z,66.00
2018-11-11T11:06:42.040Z,66.10
2018-11-11T11:07:46.248Z,66.00
2018-11-11T11:08:55.889Z,66.00
2018-11-11T11:10:00.024Z,65.90
2018-11-11T11:11:04.443Z,65.80
2018-11-11T11:12:08.767Z,66.10
2018-11-11T11:13:13.039Z,66.40
2018-11-11T11:14:17.220Z,66.50
2018-11-11T11:15:21.398Z,66.80
2018-11-11T11:16:25.533Z,66.90
2018-11-11T11:17:29.682Z,67.10
2018-11-11T11:18:33.826Z,67.20
2018-11-11T11:19:38.204Z,67.40
2018-11-11T11:20:42.381Z,67.90
2018-11-11T11:21:46.560Z,68.80
2018-11-11T11:22:50.807Z,69.70
2018-11-11T11:23:54.883Z,70.40
2018-11-11T11:24:58.979Z,71.10
2018-11-11T11:26:03.197Z,71.90
2018-11-11T11:27:07.324Z,72.10
2018-11-11T11:28:11.412Z,72.00
2018-11-11T11:29:15.546Z,72.00
2018-11-11T11:30:19.692Z,71.50
2018-11-11T11:31:23.760Z,70.90
2018-11-11T11:32:27.881Z,69.80
2018-11-11T11:33:31.896Z,69.20
2018-11-11T11:34:36.034Z,68.10
2018-11-11T11:35:40.205Z,67.00
2018-11-11T11:36:44.256Z,65.90
2018-11-11T11:37:48.358Z,64.80
2018-11-11T11:38:52.472Z,63.80
2018-11-11T11:39:56.646Z,62.70
2018-11-11T11:41:00.690Z,62.50
2018-11-11T11:42:04.925Z,60.70
2018-11-11T11:43:09.003Z,60.40
2018-11-11T11:44:13.196Z,59.40
2018-11-11T11:45:17.387Z,58.70
2018-11-11T11:46:21.493Z,58.00
2018-11-11T11:47:25.550Z,56.80
2018-11-11T11:49:33.392Z,54.80
2018-11-11T11:50:37.511Z,54.50
2018-11-11T11:51:41.602Z,53.30
2018-11-11T11:52:45.785Z,51.60
2018-11-11T11:53:49.926Z,50.40
2018-11-11T11:54:54.096Z,49.50
2018-11-11T11:55:58.178Z,49.10
2018-11-11T11:57:02.276Z,48.70
2018-11-11T11:58:16.133Z,48.60
2018-11-11T11:59:20.247Z,48.70
2018-11-11T12:00:24.423Z,49.20
2018-11-11T12:01:28.496Z,48.90
2018-11-11T12:02:32.593Z,48.70
2018-11-11T12:03:36.703Z,47.90
2018-11-11T12:04:40.779Z,47.10
2018-11-11T12:05:45.385Z,46.40
2018-11-11T12:06:49.518Z,45.70
2018-11-11T12:07:53.535Z,45.20
2018-11-11T12:08:57.827Z,44.90
2018-11-11T12:10:02.101Z,44.50
2018-11-11T12:11:06.266Z,44.20
2018-11-11T12:12:10.403Z,43.90
2018-11-11T12:13:15.408Z,43.60
2018-11-11T12:14:19.680Z,43.30
2018-11-11T12:15:23.774Z,43.30
2018-11-11T12:16:27.943Z,43.10
2018-11-11T12:17:32.129Z,43.00
2018-11-11T12:18:36.422Z,43.10
2018-11-11T12:19:40.498Z,43.20
2018-11-11T12:20:44.565Z,43.10
2018-11-11T12:21:48.933Z,43.00
2018-11-11T12:22:53.332Z,43.20
2018-11-11T12:23:57.671Z,43.60
2018-11-11T12:25:01.821Z,43.80
2018-11-11T12:26:06.245Z,43.90
2018-11-11T12:27:10.349Z,44.10
2018-11-11T12:28:14.576Z,44.30
2018-11-11T12:29:18.821Z,44.40
2018-11-11T12:30:23.230Z,44.50
2018-11-11T12:31:27.591Z,44.30
2018-11-11T12:32:31.710Z,44.00
2018-11-11T12:33:35.872Z,43.60
2018-11-11T12:34:40.106Z,43.10
2018-11-11T12:35:44.222Z,42.60
2018-11-11T12:36:48.435Z,42.20
2018-11-11T12:37:52.539Z,41.80
2018-11-11T12:38:56.781Z,40.90
2018-11-11T12:40:01.192Z,41.30
2018-11-11T12:41:05.611Z,41.20
2018-11-11T12:42:09.766Z,41.10
2018-11-11T12:43:13.903Z,40.90
2018-11-11T12:44:18.157Z,40.50
2018-11-11T12:45:22.264Z,40.30
2018-11-11T12:46:26.395Z,40.10
2018-11-11T12:47:30.508Z,40.10
2018-11-11T12:48:34.556Z,39.80
2018-11-11T12:49:38.606Z,39.40
2018-11-11T12:50:42.779Z,39.20
2018-11-11T12:51:47.036Z,39.00
2018-11-11T12:52:51.125Z,38.80
2018-11-11T12:53:55.226Z,38.60
2018-11-11T12:54:59.376Z,38.60
2018-11-11T12:56:03.744Z,38.40
2018-11-11T12:57:07.826Z,38.00
2018-11-11T12:58:11.926Z,37.70
2018-11-11T12:59:15.997Z,37.50
2018-11-11T13:00:20.175Z,37.40
2018-11-11T13:01:24.335Z,37.10
2018-11-11T13:02:28.423Z,36.80
2018-11-11T13:03:32.549Z,36.50
2018-11-11T13:04:36.705Z,36.40
2018-11-11T13:05:40.909Z,36.30
2018-11-11T13:06:44.937Z,36.00
2018-11-11T13:07:49.018Z,35.90
2018-11-11T13:08:53.091Z,35.80
2018-11-11T13:09:57.153Z,35.50
2018-11-11T13:11:01.241Z,35.40
2018-11-11T13:12:05.805Z,35.10
2018-11-11T13:13:09.729Z,34.70
2018-11-11T13:14:13.966Z,34.50
2018-11-11T13:15:18.041Z,34.20
2018-11-11T13:16:22.438Z,34.00
2018-11-11T13:17:26.561Z,33.80
2018-11-11T13:18:30.628Z,33.60
2018-11-11T13:19:34.678Z,33.60
2018-11-11T13:20:38.728Z,33.70
2018-11-11T13:21:42.972Z,33.50
2018-11-11T13:22:47.379Z,33.40
2018-11-11T13:23:51.311Z,33.20
2018-11-11T13:24:55.398Z,33.00
2018-11-11T13:25:59.480Z,32.80
2018-11-11T13:27:03.658Z,32.70
2018-11-11T13:28:07.775Z,32.30
2018-11-11T13:30:15.767Z,31.40
2018-11-11T13:31:19.947Z,32.30
2018-11-11T13:32:24.072Z,31.90
2018-11-11T13:33:28.215Z,31.60
2018-11-11T13:34:32.323Z,31.70
2018-11-11T13:35:36.732Z,31.60
2018-11-11T13:36:40.841Z,31.70
2018-11-11T13:37:45.071Z,31.60
2018-11-11T13:38:49.152Z,31.60
2018-11-11T13:39:53.285Z,31.50
2018-11-11T13:40:57.353Z,31.40
2018-11-11T13:42:01.477Z,31.50
2018-11-11T13:43:05.725Z,31.40
2018-11-11T13:44:10.044Z,31.20
2018-11-11T13:45:22.335Z,31.10
2018-11-11T13:46:26.620Z,31.00
2018-11-11T13:47:30.562Z,31.10
2018-11-11T13:48:34.671Z,31.00
2018-11-11T13:49:38.746Z,30.90
2018-11-11T13:50:42.825Z,30.80
2018-11-11T13:51:47.001Z,30.80
2018-11-11T13:52:51.154Z,30.80
2018-11-11T13:53:55.348Z,30.70
2018-11-11T13:54:59.448Z,30.60
2018-11-11T13:56:03.606Z,30.50
2018-11-11T13:57:08.522Z,30.50
2018-11-11T13:58:12.611Z,30.40
2018-11-11T13:59:16.781Z,30.20
2018-11-11T14:00:26.266Z,30.00
2018-11-11T14:01:30.468Z,29.80
2018-11-11T14:02:34.569Z,29.70
2018-11-11T14:03:38.665Z,29.70